sensor_id;sensor_type;location;lat;lon;timestamp;P1;durP1;ratioP1;P2;durP2;ratioP2
73266;SDS011;61495;53.400;7.608;2023-07-02T00:00:16;6.80;;;2.57;;
73266;SDS011;61495;53.400;7.608;2023-07-02T00:02:42;10.32;;;3.15;;
73266;SDS011;61495;53.400;7.608;2023-07-02T00:05:07;5.88;;;2.65;;
73266;SDS011;61495;53.400;7.608;2023-07-02T00:07:33;6.22;;;2.47;;
73266;SDS011;61495;53.400;7.608;2023-07-02T00:10:01;9.48;;;2.72;;
73266;SDS011;61495;53.400;7.608;2023-07-02T00:12:26;8.82;;;2.50;;
73266;SDS011;61495;53.400;7.608;2023-07-02T00:14:51;6.22;;;2.55;;
73266;SDS011;61495;53.400;7.608;2023-07-02T00:17:18;6.35;;;3.22;;
73266;SDS011;61495;53.400;7.608;2023-07-02T00:19:43;8.85;;;3.00;;
73266;SDS011;61495;53.400;7.608;2023-07-02T00:22:11;6.03;;;2.28;;
73266;SDS011;61495;53.400;7.608;2023-07-02T00:24:37;6.60;;;3.00;;
73266;SDS011;61495;53.400;7.608;2023-07-02T00:27:02;5.45;;;2.75;;
73266;SDS011;61495;53.400;7.608;2023-07-02T00:29:28;5.70;;;2.40;;
73266;SDS011;61495;53.400;7.608;2023-07-02T00:31:54;7.78;;;3.13;;
73266;SDS011;61495;53.400;7.608;2023-07-02T00:34:19;6.43;;;2.80;;
73266;SDS011;61495;53.400;7.608;2023-07-02T00:36:45;8.23;;;2.78;;
73266;SDS011;61495;53.400;7.608;2023-07-02T00:39:11;8.93;;;2.85;;
73266;SDS011;61495;53.400;7.608;2023-07-02T00:41:37;9.18;;;2.72;;
73266;SDS011;61495;53.400;7.608;2023-07-02T00:44:02;6.88;;;2.72;;
73266;SDS011;61495;53.400;7.608;2023-07-02T00:46:28;11.00;;;3.80;;
73266;SDS011;61495;53.400;7.608;2023-07-02T00:48:53;8.18;;;3.22;;
73266;SDS011;61495;53.400;7.608;2023-07-02T00:51:20;8.80;;;3.25;;
73266;SDS011;61495;53.400;7.608;2023-07-02T00:53:48;7.53;;;3.00;;
73266;SDS011;61495;53.400;7.608;2023-07-02T00:56:15;10.88;;;4.40;;
73266;SDS011;61495;53.400;7.608;2023-07-02T00:58:41;11.93;;;3.63;;
73266;SDS011;61495;53.400;7.608;2023-07-02T01:01:20;12.07;;;3.67;;
73266;SDS011;61495;53.400;7.608;2023-07-02T01:04:05;12.23;;;3.75;;
73266;SDS011;61495;53.400;7.608;2023-07-02T01:06:33;16.80;;;4.55;;
73266;SDS011;61495;53.400;7.608;2023-07-02T01:09:03;12.10;;;4.03;;
73266;SDS011;61495;53.400;7.608;2023-07-02T01:11:31;12.80;;;4.05;;
73266;SDS011;61495;53.400;7.608;2023-07-02T01:14:04;13.25;;;4.45;;
73266;SDS011;61495;53.400;7.608;2023-07-02T01:16:33;9.52;;;4.13;;
73266;SDS011;61495;53.400;7.608;2023-07-02T01:19:02;10.15;;;4.43;;
73266;SDS011;61495;53.400;7.608;2023-07-02T01:21:29;13.23;;;4.47;;
73266;SDS011;61495;53.400;7.608;2023-07-02T01:23:56;13.10;;;4.70;;
73266;SDS011;61495;53.400;7.608;2023-07-02T01:26:23;13.55;;;4.75;;
73266;SDS011;61495;53.400;7.608;2023-07-02T01:28:49;15.65;;;3.83;;
73266;SDS011;61495;53.400;7.608;2023-07-02T01:31:15;13.70;;;4.53;;
73266;SDS011;61495;53.400;7.608;2023-07-02T01:33:41;13.05;;;4.88;;
73266;SDS011;61495;53.400;7.608;2023-07-02T01:36:07;15.50;;;4.78;;
73266;SDS011;61495;53.400;7.608;2023-07-02T01:38:37;15.00;;;4.78;;
73266;SDS011;61495;53.400;7.608;2023-07-02T01:41:20;11.88;;;4.22;;
73266;SDS011;61495;53.400;7.608;2023-07-02T01:46:36;14.15;;;4.45;;
73266;SDS011;61495;53.400;7.608;2023-07-02T01:51:54;9.63;;;3.75;;
73266;SDS011;61495;53.400;7.608;2023-07-02T01:54:46;12.27;;;4.10;;
73266;SDS011;61495;53.400;7.608;2023-07-02T01:57:21;14.40;;;4.50;;
73266;SDS011;61495;53.400;7.608;2023-07-02T01:59:46;11.88;;;4.10;;
73266;SDS011;61495;53.400;7.608;2023-07-02T02:02:12;14.73;;;4.35;;
73266;SDS011;61495;53.400;7.608;2023-07-02T02:04:37;12.25;;;4.80;;
73266;SDS011;61495;53.400;7.608;2023-07-02T02:07:02;14.73;;;4.00;;
73266;SDS011;61495;53.400;7.608;2023-07-02T02:09:28;17.25;;;4.97;;
73266;SDS011;61495;53.400;7.608;2023-07-02T02:11:55;12.07;;;3.72;;
73266;SDS011;61495;53.400;7.608;2023-07-02T02:14:20;12.95;;;4.22;;
73266;SDS011;61495;53.400;7.608;2023-07-02T02:16:46;11.27;;;4.07;;
73266;SDS011;61495;53.400;7.608;2023-07-02T02:19:12;14.45;;;4.63;;
73266;SDS011;61495;53.400;7.608;2023-07-02T02:21:39;12.43;;;4.18;;
73266;SDS011;61495;53.400;7.608;2023-07-02T02:24:06;15.75;;;4.65;;
73266;SDS011;61495;53.400;7.608;2023-07-02T02:26:32;10.38;;;3.88;;
73266;SDS011;61495;53.400;7.608;2023-07-02T02:28:58;15.85;;;5.03;;
73266;SDS011;61495;53.400;7.608;2023-07-02T02:31:23;13.95;;;4.43;;
73266;SDS011;61495;53.400;7.608;2023-07-02T02:33:48;13.98;;;5.05;;
73266;SDS011;61495;53.400;7.608;2023-07-02T02:36:14;14.02;;;4.90;;
73266;SDS011;61495;53.400;7.608;2023-07-02T02:38:39;13.60;;;4.80;;
73266;SDS011;61495;53.400;7.608;2023-07-02T02:41:05;13.85;;;4.30;;
73266;SDS011;61495;53.400;7.608;2023-07-02T02:43:33;14.55;;;4.70;;
73266;SDS011;61495;53.400;7.608;2023-07-02T02:45:58;13.93;;;5.30;;
73266;SDS011;61495;53.400;7.608;2023-07-02T02:48:24;14.88;;;4.55;;
73266;SDS011;61495;53.400;7.608;2023-07-02T02:50:49;15.75;;;6.10;;
73266;SDS011;61495;53.400;7.608;2023-07-02T02:53:14;13.30;;;4.85;;
73266;SDS011;61495;53.400;7.608;2023-07-02T02:55:40;14.13;;;4.30;;
73266;SDS011;61495;53.400;7.608;2023-07-02T02:58:05;15.27;;;4.70;;
73266;SDS011;61495;53.400;7.608;2023-07-02T03:00:31;14.63;;;4.85;;
73266;SDS011;61495;53.400;7.608;2023-07-02T03:02:56;16.88;;;5.10;;
73266;SDS011;61495;53.400;7.608;2023-07-02T03:05:22;19.33;;;5.07;;
73266;SDS011;61495;53.400;7.608;2023-07-02T03:07:47;10.25;;;4.60;;
73266;SDS011;61495;53.400;7.608;2023-07-02T03:10:13;14.52;;;5.07;;
73266;SDS011;61495;53.400;7.608;2023-07-02T03:12:38;19.42;;;5.43;;
73266;SDS011;61495;53.400;7.608;2023-07-02T03:15:04;16.02;;;5.57;;
73266;SDS011;61495;53.400;7.608;2023-07-02T03:17:29;16.05;;;4.55;;
73266;SDS011;61495;53.400;7.608;2023-07-02T03:19:55;15.17;;;5.23;;
73266;SDS011;61495;53.400;7.608;2023-07-02T03:22:20;13.38;;;5.03;;
73266;SDS011;61495;53.400;7.608;2023-07-02T03:24:45;12.88;;;5.20;;
73266;SDS011;61495;53.400;7.608;2023-07-02T03:27:11;14.85;;;4.90;;
73266;SDS011;61495;53.400;7.608;2023-07-02T03:29:36;17.52;;;5.93;;
73266;SDS011;61495;53.400;7.608;2023-07-02T03:32:03;14.60;;;5.20;;
73266;SDS011;61495;53.400;7.608;2023-07-02T03:34:29;16.30;;;5.85;;
73266;SDS011;61495;53.400;7.608;2023-07-02T03:36:54;16.50;;;5.47;;
73266;SDS011;61495;53.400;7.608;2023-07-02T03:39:19;12.90;;;4.53;;
73266;SDS011;61495;53.400;7.608;2023-07-02T03:41:45;18.63;;;5.07;;
73266;SDS011;61495;53.400;7.608;2023-07-02T03:44:10;19.33;;;4.88;;
73266;SDS011;61495;53.400;7.608;2023-07-02T03:46:36;17.25;;;5.43;;
73266;SDS011;61495;53.400;7.608;2023-07-02T03:49:04;13.30;;;4.65;;
73266;SDS011;61495;53.400;7.608;2023-07-02T03:51:30;14.32;;;5.28;;
73266;SDS011;61495;53.400;7.608;2023-07-02T03:53:57;16.27;;;4.90;;
73266;SDS011;61495;53.400;7.608;2023-07-02T03:56:23;17.38;;;5.03;;
73266;SDS011;61495;53.400;7.608;2023-07-02T03:58:48;13.88;;;4.90;;
73266;SDS011;61495;53.400;7.608;2023-07-02T04:01:14;22.90;;;5.57;;
73266;SDS011;61495;53.400;7.608;2023-07-02T04:03:41;18.45;;;5.35;;
73266;SDS011;61495;53.400;7.608;2023-07-02T04:06:12;14.75;;;5.00;;
73266;SDS011;61495;53.400;7.608;2023-07-02T04:08:37;15.95;;;5.47;;
73266;SDS011;61495;53.400;7.608;2023-07-02T04:11:03;16.00;;;5.45;;
73266;SDS011;61495;53.400;7.608;2023-07-02T04:13:28;17.98;;;6.30;;
73266;SDS011;61495;53.400;7.608;2023-07-02T04:15:53;18.08;;;5.80;;
73266;SDS011;61495;53.400;7.608;2023-07-02T04:18:19;14.23;;;4.97;;
73266;SDS011;61495;53.400;7.608;2023-07-02T04:20:44;16.45;;;5.78;;
73266;SDS011;61495;53.400;7.608;2023-07-02T04:23:10;20.37;;;5.60;;
73266;SDS011;61495;53.400;7.608;2023-07-02T04:25:35;15.60;;;5.53;;
73266;SDS011;61495;53.400;7.608;2023-07-02T04:28:00;20.55;;;6.72;;
73266;SDS011;61495;53.400;7.608;2023-07-02T04:30:26;19.27;;;5.88;;
73266;SDS011;61495;53.400;7.608;2023-07-02T04:32:51;13.75;;;4.93;;
73266;SDS011;61495;53.400;7.608;2023-07-02T04:35:17;15.25;;;6.13;;
73266;SDS011;61495;53.400;7.608;2023-07-02T04:37:43;15.25;;;4.97;;
73266;SDS011;61495;53.400;7.608;2023-07-02T04:40:09;17.08;;;5.95;;
73266;SDS011;61495;53.400;7.608;2023-07-02T04:42:35;14.82;;;5.47;;
73266;SDS011;61495;53.400;7.608;2023-07-02T04:45:02;18.13;;;6.53;;
73266;SDS011;61495;53.400;7.608;2023-07-02T04:47:29;19.52;;;5.72;;
73266;SDS011;61495;53.400;7.608;2023-07-02T04:49:55;14.73;;;5.65;;
73266;SDS011;61495;53.400;7.608;2023-07-02T04:52:20;18.67;;;4.78;;
73266;SDS011;61495;53.400;7.608;2023-07-02T04:54:45;17.55;;;5.50;;
73266;SDS011;61495;53.400;7.608;2023-07-02T04:57:11;17.92;;;5.70;;
73266;SDS011;61495;53.400;7.608;2023-07-02T04:59:38;21.52;;;6.55;;
73266;SDS011;61495;53.400;7.608;2023-07-02T05:02:03;17.67;;;5.82;;
73266;SDS011;61495;53.400;7.608;2023-07-02T05:04:29;15.90;;;5.00;;
73266;SDS011;61495;53.400;7.608;2023-07-02T05:06:54;14.03;;;4.87;;
73266;SDS011;61495;53.400;7.608;2023-07-02T05:09:19;18.33;;;5.67;;
73266;SDS011;61495;53.400;7.608;2023-07-02T05:11:44;20.05;;;6.53;;
73266;SDS011;61495;53.400;7.608;2023-07-02T05:14:10;17.88;;;5.75;;
73266;SDS011;61495;53.400;7.608;2023-07-02T05:16:35;17.90;;;5.43;;
73266;SDS011;61495;53.400;7.608;2023-07-02T05:19:00;15.43;;;5.70;;
73266;SDS011;61495;53.400;7.608;2023-07-02T05:21:26;19.05;;;5.80;;
73266;SDS011;61495;53.400;7.608;2023-07-02T05:23:51;15.55;;;5.78;;
73266;SDS011;61495;53.400;7.608;2023-07-02T05:26:16;18.55;;;5.38;;
73266;SDS011;61495;53.400;7.608;2023-07-02T05:28:42;17.42;;;5.40;;
73266;SDS011;61495;53.400;7.608;2023-07-02T05:31:07;11.80;;;4.80;;
73266;SDS011;61495;53.400;7.608;2023-07-02T05:33:34;20.98;;;5.03;;
73266;SDS011;61495;53.400;7.608;2023-07-02T05:35:59;21.83;;;6.72;;
73266;SDS011;61495;53.400;7.608;2023-07-02T05:38:24;16.02;;;5.63;;
73266;SDS011;61495;53.400;7.608;2023-07-02T05:40:50;13.55;;;5.22;;
73266;SDS011;61495;53.400;7.608;2023-07-02T05:43:15;14.60;;;5.32;;
73266;SDS011;61495;53.400;7.608;2023-07-02T05:45:40;14.10;;;5.50;;
73266;SDS011;61495;53.400;7.608;2023-07-02T05:48:06;16.17;;;6.00;;
73266;SDS011;61495;53.400;7.608;2023-07-02T05:50:31;16.35;;;5.32;;
73266;SDS011;61495;53.400;7.608;2023-07-02T05:52:57;16.63;;;5.22;;
73266;SDS011;61495;53.400;7.608;2023-07-02T05:55:22;17.80;;;5.18;;
73266;SDS011;61495;53.400;7.608;2023-07-02T05:57:48;18.52;;;5.50;;
73266;SDS011;61495;53.400;7.608;2023-07-02T06:00:14;16.13;;;5.28;;
73266;SDS011;61495;53.400;7.608;2023-07-02T06:02:39;14.25;;;4.75;;
73266;SDS011;61495;53.400;7.608;2023-07-02T06:05:05;17.38;;;5.43;;
73266;SDS011;61495;53.400;7.608;2023-07-02T06:07:30;18.60;;;5.35;;
73266;SDS011;61495;53.400;7.608;2023-07-02T06:09:56;11.80;;;5.03;;
73266;SDS011;61495;53.400;7.608;2023-07-02T06:12:21;11.80;;;4.28;;
73266;SDS011;61495;53.400;7.608;2023-07-02T06:14:47;16.10;;;4.55;;
73266;SDS011;61495;53.400;7.608;2023-07-02T06:17:13;17.92;;;5.05;;
73266;SDS011;61495;53.400;7.608;2023-07-02T06:19:38;11.80;;;4.45;;
73266;SDS011;61495;53.400;7.608;2023-07-02T06:22:04;17.27;;;4.88;;
73266;SDS011;61495;53.400;7.608;2023-07-02T06:24:30;17.40;;;4.65;;
73266;SDS011;61495;53.400;7.608;2023-07-02T06:26:56;13.35;;;4.55;;
73266;SDS011;61495;53.400;7.608;2023-07-02T06:29:22;15.13;;;5.32;;
73266;SDS011;61495;53.400;7.608;2023-07-02T06:31:48;13.57;;;4.45;;
73266;SDS011;61495;53.400;7.608;2023-07-02T06:34:13;13.80;;;4.30;;
73266;SDS011;61495;53.400;7.608;2023-07-02T06:36:39;12.85;;;4.15;;
73266;SDS011;61495;53.400;7.608;2023-07-02T06:39:04;12.85;;;4.68;;
73266;SDS011;61495;53.400;7.608;2023-07-02T06:41:30;14.27;;;3.55;;
73266;SDS011;61495;53.400;7.608;2023-07-02T06:43:55;12.93;;;4.05;;
73266;SDS011;61495;53.400;7.608;2023-07-02T06:46:20;12.50;;;4.60;;
73266;SDS011;61495;53.400;7.608;2023-07-02T06:48:46;13.88;;;4.25;;
73266;SDS011;61495;53.400;7.608;2023-07-02T06:51:11;11.45;;;3.55;;
73266;SDS011;61495;53.400;7.608;2023-07-02T06:53:39;11.52;;;3.47;;
73266;SDS011;61495;53.400;7.608;2023-07-02T06:56:07;11.57;;;3.80;;
73266;SDS011;61495;53.400;7.608;2023-07-02T06:58:33;12.48;;;3.63;;
73266;SDS011;61495;53.400;7.608;2023-07-02T07:00:58;11.77;;;3.70;;
73266;SDS011;61495;53.400;7.608;2023-07-02T07:03:23;13.35;;;3.30;;
73266;SDS011;61495;53.400;7.608;2023-07-02T07:05:49;11.30;;;3.60;;
73266;SDS011;61495;53.400;7.608;2023-07-02T07:08:14;14.25;;;3.80;;
73266;SDS011;61495;53.400;7.608;2023-07-02T07:10:40;10.15;;;3.38;;
73266;SDS011;61495;53.400;7.608;2023-07-02T07:13:05;10.50;;;3.30;;
73266;SDS011;61495;53.400;7.608;2023-07-02T07:15:32;9.48;;;2.83;;
73266;SDS011;61495;53.400;7.608;2023-07-02T07:17:59;7.90;;;3.17;;
73266;SDS011;61495;53.400;7.608;2023-07-02T07:20:24;10.80;;;2.83;;
73266;SDS011;61495;53.400;7.608;2023-07-02T07:22:50;12.82;;;3.65;;
73266;SDS011;61495;53.400;7.608;2023-07-02T07:25:15;7.82;;;2.88;;
73266;SDS011;61495;53.400;7.608;2023-07-02T07:27:40;8.65;;;3.50;;
73266;SDS011;61495;53.400;7.608;2023-07-02T07:30:06;10.88;;;3.50;;
73266;SDS011;61495;53.400;7.608;2023-07-02T07:32:32;11.43;;;3.67;;
73266;SDS011;61495;53.400;7.608;2023-07-02T07:34:57;15.77;;;3.75;;
73266;SDS011;61495;53.400;7.608;2023-07-02T07:37:23;13.77;;;4.18;;
73266;SDS011;61495;53.400;7.608;2023-07-02T07:39:50;14.68;;;3.28;;
73266;SDS011;61495;53.400;7.608;2023-07-02T07:42:15;11.80;;;3.88;;
73266;SDS011;61495;53.400;7.608;2023-07-02T07:44:41;13.30;;;3.97;;
73266;SDS011;61495;53.400;7.608;2023-07-02T07:47:07;11.65;;;3.42;;
73266;SDS011;61495;53.400;7.608;2023-07-02T07:49:33;7.95;;;3.25;;
73266;SDS011;61495;53.400;7.608;2023-07-02T07:51:58;13.68;;;3.33;;
73266;SDS011;61495;53.400;7.608;2023-07-02T07:54:23;12.18;;;3.55;;
73266;SDS011;61495;53.400;7.608;2023-07-02T07:56:49;10.07;;;2.95;;
73266;SDS011;61495;53.400;7.608;2023-07-02T07:59:15;16.67;;;4.03;;
73266;SDS011;61495;53.400;7.608;2023-07-02T08:01:41;8.20;;;3.42;;
73266;SDS011;61495;53.400;7.608;2023-07-02T08:04:06;8.38;;;2.78;;
73266;SDS011;61495;53.400;7.608;2023-07-02T08:06:31;10.52;;;2.58;;
73266;SDS011;61495;53.400;7.608;2023-07-02T08:08:57;10.60;;;2.55;;
73266;SDS011;61495;53.400;7.608;2023-07-02T08:11:22;12.70;;;2.70;;
73266;SDS011;61495;53.400;7.608;2023-07-02T08:13:47;10.35;;;3.20;;
73266;SDS011;61495;53.400;7.608;2023-07-02T08:16:13;8.73;;;3.30;;
73266;SDS011;61495;53.400;7.608;2023-07-02T08:18:38;9.90;;;3.22;;
73266;SDS011;61495;53.400;7.608;2023-07-02T08:21:03;9.45;;;2.63;;
73266;SDS011;61495;53.400;7.608;2023-07-02T08:23:31;8.15;;;2.35;;
73266;SDS011;61495;53.400;7.608;2023-07-02T08:25:56;12.40;;;2.50;;
73266;SDS011;61495;53.400;7.608;2023-07-02T08:28:22;7.68;;;2.58;;
73266;SDS011;61495;53.400;7.608;2023-07-02T08:30:47;8.07;;;2.50;;
73266;SDS011;61495;53.400;7.608;2023-07-02T08:33:13;11.38;;;2.88;;
73266;SDS011;61495;53.400;7.608;2023-07-02T08:35:38;9.25;;;2.78;;
73266;SDS011;61495;53.400;7.608;2023-07-02T08:38:03;12.63;;;2.75;;
73266;SDS011;61495;53.400;7.608;2023-07-02T08:40:29;7.13;;;2.88;;
73266;SDS011;61495;53.400;7.608;2023-07-02T08:42:54;8.90;;;3.00;;
73266;SDS011;61495;53.400;7.608;2023-07-02T08:45:20;10.45;;;2.40;;
73266;SDS011;61495;53.400;7.608;2023-07-02T08:47:49;8.45;;;2.22;;
73266;SDS011;61495;53.400;7.608;2023-07-02T08:50:16;8.45;;;2.30;;
73266;SDS011;61495;53.400;7.608;2023-07-02T08:52:41;8.57;;;2.45;;
73266;SDS011;61495;53.400;7.608;2023-07-02T08:55:08;9.73;;;2.83;;
73266;SDS011;61495;53.400;7.608;2023-07-02T08:57:34;12.57;;;3.25;;
73266;SDS011;61495;53.400;7.608;2023-07-02T09:00:03;8.65;;;2.47;;
73266;SDS011;61495;53.400;7.608;2023-07-02T09:02:33;6.85;;;2.17;;
73266;SDS011;61495;53.400;7.608;2023-07-02T09:05:00;7.53;;;2.25;;
73266;SDS011;61495;53.400;7.608;2023-07-02T09:07:29;5.57;;;1.88;;
73266;SDS011;61495;53.400;7.608;2023-07-02T09:09:55;9.55;;;2.03;;
73266;SDS011;61495;53.400;7.608;2023-07-02T09:14:56;7.05;;;1.67;;
73266;SDS011;61495;53.400;7.608;2023-07-02T09:17:36;8.80;;;2.17;;
73266;SDS011;61495;53.400;7.608;2023-07-02T09:20:05;9.52;;;2.30;;
73266;SDS011;61495;53.400;7.608;2023-07-02T09:22:34;7.30;;;2.08;;
73266;SDS011;61495;53.400;7.608;2023-07-02T09:25:00;6.70;;;2.33;;
73266;SDS011;61495;53.400;7.608;2023-07-02T09:27:33;8.90;;;2.05;;
73266;SDS011;61495;53.400;7.608;2023-07-02T09:32:33;8.60;;;2.15;;
73266;SDS011;61495;53.400;7.608;2023-07-02T09:34:58;8.05;;;2.00;;
73266;SDS011;61495;53.400;7.608;2023-07-02T09:37:24;7.05;;;2.22;;
73266;SDS011;61495;53.400;7.608;2023-07-02T09:39:50;7.82;;;2.13;;
73266;SDS011;61495;53.400;7.608;2023-07-02T09:42:17;7.30;;;2.13;;
73266;SDS011;61495;53.400;7.608;2023-07-02T09:44:44;8.10;;;2.40;;
73266;SDS011;61495;53.400;7.608;2023-07-02T09:47:10;9.40;;;2.30;;
73266;SDS011;61495;53.400;7.608;2023-07-02T09:49:38;7.55;;;3.15;;
73266;SDS011;61495;53.400;7.608;2023-07-02T09:52:05;9.82;;;2.50;;
73266;SDS011;61495;53.400;7.608;2023-07-02T09:54:32;9.88;;;2.85;;
73266;SDS011;61495;53.400;7.608;2023-07-02T09:56:58;8.48;;;2.05;;
73266;SDS011;61495;53.400;7.608;2023-07-02T09:59:24;7.90;;;2.65;;
73266;SDS011;61495;53.400;7.608;2023-07-02T10:01:50;6.38;;;2.10;;
73266;SDS011;61495;53.400;7.608;2023-07-02T10:04:17;7.80;;;2.60;;
73266;SDS011;61495;53.400;7.608;2023-07-02T10:06:48;7.63;;;2.13;;
73266;SDS011;61495;53.400;7.608;2023-07-02T10:09:15;7.55;;;2.53;;
73266;SDS011;61495;53.400;7.608;2023-07-02T10:11:42;7.53;;;1.80;;
73266;SDS011;61495;53.400;7.608;2023-07-02T10:14:07;8.35;;;1.95;;
73266;SDS011;61495;53.400;7.608;2023-07-02T10:16:32;7.55;;;2.42;;
73266;SDS011;61495;53.400;7.608;2023-07-02T10:19:07;10.25;;;2.47;;
73266;SDS011;61495;53.400;7.608;2023-07-02T10:21:34;5.95;;;1.90;;
73266;SDS011;61495;53.400;7.608;2023-07-02T10:24:16;7.00;;;2.08;;
73266;SDS011;61495;53.400;7.608;2023-07-02T10:26:54;7.72;;;2.67;;
73266;SDS011;61495;53.400;7.608;2023-07-02T10:29:24;7.28;;;1.98;;
73266;SDS011;61495;53.400;7.608;2023-07-02T10:31:51;7.10;;;1.58;;
73266;SDS011;61495;53.400;7.608;2023-07-02T10:34:30;5.82;;;1.45;;
73266;SDS011;61495;53.400;7.608;2023-07-02T10:36:56;6.63;;;1.65;;
73266;SDS011;61495;53.400;7.608;2023-07-02T10:39:22;6.32;;;1.80;;
73266;SDS011;61495;53.400;7.608;2023-07-02T10:41:47;6.70;;;1.70;;
73266;SDS011;61495;53.400;7.608;2023-07-02T10:44:14;5.78;;;1.67;;
73266;SDS011;61495;53.400;7.608;2023-07-02T10:46:43;4.65;;;1.75;;
73266;SDS011;61495;53.400;7.608;2023-07-02T10:49:09;5.50;;;1.67;;
73266;SDS011;61495;53.400;7.608;2023-07-02T10:51:36;6.15;;;1.65;;
73266;SDS011;61495;53.400;7.608;2023-07-02T10:54:03;6.60;;;1.90;;
73266;SDS011;61495;53.400;7.608;2023-07-02T10:56:30;7.00;;;1.98;;
73266;SDS011;61495;53.400;7.608;2023-07-02T10:58:56;7.28;;;1.95;;
73266;SDS011;61495;53.400;7.608;2023-07-02T11:01:26;5.35;;;1.77;;
73266;SDS011;61495;53.400;7.608;2023-07-02T11:03:56;8.52;;;1.77;;
73266;SDS011;61495;53.400;7.608;2023-07-02T11:08:48;8.02;;;2.13;;
73266;SDS011;61495;53.400;7.608;2023-07-02T11:11:14;5.78;;;1.90;;
73266;SDS011;61495;53.400;7.608;2023-07-02T11:13:46;7.35;;;1.98;;
73266;SDS011;61495;53.400;7.608;2023-07-02T11:18:45;7.90;;;1.95;;
73266;SDS011;61495;53.400;7.608;2023-07-02T11:21:10;7.85;;;2.38;;
73266;SDS011;61495;53.400;7.608;2023-07-02T11:23:36;5.80;;;1.63;;
73266;SDS011;61495;53.400;7.608;2023-07-02T11:26:01;4.55;;;1.48;;
73266;SDS011;61495;53.400;7.608;2023-07-02T11:28:29;7.35;;;1.77;;
73266;SDS011;61495;53.400;7.608;2023-07-02T11:30:56;4.80;;;1.75;;
73266;SDS011;61495;53.400;7.608;2023-07-02T11:33:37;6.70;;;1.45;;
73266;SDS011;61495;53.400;7.608;2023-07-02T11:38:30;5.28;;;1.30;;
73266;SDS011;61495;53.400;7.608;2023-07-02T11:40:56;6.25;;;1.42;;
73266;SDS011;61495;53.400;7.608;2023-07-02T11:43:21;5.30;;;1.80;;
73266;SDS011;61495;53.400;7.608;2023-07-02T11:45:46;5.53;;;1.50;;
73266;SDS011;61495;53.400;7.608;2023-07-02T11:48:12;5.65;;;1.27;;
73266;SDS011;61495;53.400;7.608;2023-07-02T11:50:38;5.75;;;1.55;;
73266;SDS011;61495;53.400;7.608;2023-07-02T11:53:03;5.22;;;1.55;;
73266;SDS011;61495;53.400;7.608;2023-07-02T11:55:28;6.20;;;1.60;;
73266;SDS011;61495;53.400;7.608;2023-07-02T11:57:54;4.68;;;1.45;;
73266;SDS011;61495;53.400;7.608;2023-07-02T12:00:19;6.28;;;2.33;;
73266;SDS011;61495;53.400;7.608;2023-07-02T12:02:44;5.88;;;1.73;;
73266;SDS011;61495;53.400;7.608;2023-07-02T12:05:10;5.13;;;1.63;;
73266;SDS011;61495;53.400;7.608;2023-07-02T12:07:35;7.47;;;2.10;;
73266;SDS011;61495;53.400;7.608;2023-07-02T12:10:00;5.82;;;1.70;;
73266;SDS011;61495;53.400;7.608;2023-07-02T12:12:26;6.07;;;1.63;;
73266;SDS011;61495;53.400;7.608;2023-07-02T12:14:51;6.72;;;1.92;;
73266;SDS011;61495;53.400;7.608;2023-07-02T12:17:17;8.27;;;1.77;;
73266;SDS011;61495;53.400;7.608;2023-07-02T12:19:42;7.97;;;1.80;;
73266;SDS011;61495;53.400;7.608;2023-07-02T12:22:08;8.13;;;2.53;;
73266;SDS011;61495;53.400;7.608;2023-07-02T12:24:33;7.97;;;2.17;;
73266;SDS011;61495;53.400;7.608;2023-07-02T12:26:59;7.45;;;1.73;;
73266;SDS011;61495;53.400;7.608;2023-07-02T12:29:24;6.80;;;1.90;;
73266;SDS011;61495;53.400;7.608;2023-07-02T12:31:49;8.18;;;2.25;;
73266;SDS011;61495;53.400;7.608;2023-07-02T12:34:15;5.93;;;1.73;;
73266;SDS011;61495;53.400;7.608;2023-07-02T12:36:41;6.20;;;1.92;;
73266;SDS011;61495;53.400;7.608;2023-07-02T12:39:06;4.35;;;1.70;;
73266;SDS011;61495;53.400;7.608;2023-07-02T12:41:32;8.23;;;2.40;;
73266;SDS011;61495;53.400;7.608;2023-07-02T12:43:58;8.05;;;1.70;;
73266;SDS011;61495;53.400;7.608;2023-07-02T12:46:23;6.60;;;1.80;;
73266;SDS011;61495;53.400;7.608;2023-07-02T12:48:49;6.85;;;1.58;;
73266;SDS011;61495;53.400;7.608;2023-07-02T12:51:14;9.85;;;2.22;;
73266;SDS011;61495;53.400;7.608;2023-07-02T12:53:39;6.80;;;1.95;;
73266;SDS011;61495;53.400;7.608;2023-07-02T12:56:05;7.82;;;1.90;;
73266;SDS011;61495;53.400;7.608;2023-07-02T12:58:30;8.13;;;1.73;;
73266;SDS011;61495;53.400;7.608;2023-07-02T13:00:56;8.23;;;2.45;;
73266;SDS011;61495;53.400;7.608;2023-07-02T13:03:21;7.20;;;1.92;;
73266;SDS011;61495;53.400;7.608;2023-07-02T13:05:48;6.60;;;2.28;;
73266;SDS011;61495;53.400;7.608;2023-07-02T13:08:14;11.18;;;2.75;;
73266;SDS011;61495;53.400;7.608;2023-07-02T13:10:39;4.88;;;1.77;;
73266;SDS011;61495;53.400;7.608;2023-07-02T13:13:05;6.07;;;1.90;;
73266;SDS011;61495;53.400;7.608;2023-07-02T13:15:31;8.77;;;1.95;;
73266;SDS011;61495;53.400;7.608;2023-07-02T13:17:56;6.28;;;1.90;;
73266;SDS011;61495;53.400;7.608;2023-07-02T13:20:21;6.40;;;1.67;;
73266;SDS011;61495;53.400;7.608;2023-07-02T13:22:47;6.85;;;2.20;;
73266;SDS011;61495;53.400;7.608;2023-07-02T13:25:12;6.50;;;1.88;;
73266;SDS011;61495;53.400;7.608;2023-07-02T13:27:37;5.85;;;2.08;;
73266;SDS011;61495;53.400;7.608;2023-07-02T13:30:03;11.35;;;2.00;;
73266;SDS011;61495;53.400;7.608;2023-07-02T13:32:29;6.15;;;2.20;;
73266;SDS011;61495;53.400;7.608;2023-07-02T13:34:55;5.50;;;1.85;;
73266;SDS011;61495;53.400;7.608;2023-07-02T13:37:21;8.27;;;2.50;;
73266;SDS011;61495;53.400;7.608;2023-07-02T13:39:47;7.93;;;1.83;;
73266;SDS011;61495;53.400;7.608;2023-07-02T13:42:13;7.35;;;2.67;;
73266;SDS011;61495;53.400;7.608;2023-07-02T13:44:39;6.07;;;1.88;;
73266;SDS011;61495;53.400;7.608;2023-07-02T13:47:05;6.28;;;2.15;;
73266;SDS011;61495;53.400;7.608;2023-07-02T13:49:31;6.05;;;2.10;;
73266;SDS011;61495;53.400;7.608;2023-07-02T13:51:57;6.85;;;2.38;;
73266;SDS011;61495;53.400;7.608;2023-07-02T13:54:23;8.95;;;2.13;;
73266;SDS011;61495;53.400;7.608;2023-07-02T13:56:48;7.85;;;2.35;;
73266;SDS011;61495;53.400;7.608;2023-07-02T13:59:14;8.13;;;2.00;;
73266;SDS011;61495;53.400;7.608;2023-07-02T14:01:41;7.22;;;2.13;;
73266;SDS011;61495;53.400;7.608;2023-07-02T14:04:06;7.35;;;1.98;;
73266;SDS011;61495;53.400;7.608;2023-07-02T14:06:32;7.80;;;2.97;;
73266;SDS011;61495;53.400;7.608;2023-07-02T14:08:57;8.40;;;2.25;;
73266;SDS011;61495;53.400;7.608;2023-07-02T14:11:23;7.60;;;2.00;;
73266;SDS011;61495;53.400;7.608;2023-07-02T14:13:50;8.25;;;2.20;;
73266;SDS011;61495;53.400;7.608;2023-07-02T14:16:15;8.32;;;2.20;;
73266;SDS011;61495;53.400;7.608;2023-07-02T14:18:41;9.80;;;2.80;;
73266;SDS011;61495;53.400;7.608;2023-07-02T14:21:06;9.68;;;2.45;;
73266;SDS011;61495;53.400;7.608;2023-07-02T14:23:32;8.23;;;2.17;;
73266;SDS011;61495;53.400;7.608;2023-07-02T14:25:57;8.38;;;2.38;;
73266;SDS011;61495;53.400;7.608;2023-07-02T14:28:22;5.93;;;2.10;;
73266;SDS011;61495;53.400;7.608;2023-07-02T14:30:55;5.90;;;1.92;;
73266;SDS011;61495;53.400;7.608;2023-07-02T14:33:22;9.15;;;2.78;;
73266;SDS011;61495;53.400;7.608;2023-07-02T14:35:47;8.00;;;2.58;;
73266;SDS011;61495;53.400;7.608;2023-07-02T14:38:12;6.93;;;2.35;;
73266;SDS011;61495;53.400;7.608;2023-07-02T14:40:38;9.32;;;2.38;;
73266;SDS011;61495;53.400;7.608;2023-07-02T14:43:03;10.45;;;2.30;;
73266;SDS011;61495;53.400;7.608;2023-07-02T14:45:30;9.98;;;2.67;;
73266;SDS011;61495;53.400;7.608;2023-07-02T14:47:55;7.72;;;2.65;;
73266;SDS011;61495;53.400;7.608;2023-07-02T14:50:24;7.25;;;2.40;;
73266;SDS011;61495;53.400;7.608;2023-07-02T14:52:50;8.90;;;2.97;;